sensor_id;sensor_type;location;lat;lon;timestamp;pressure;altitude;pressure_sealevel;temperature;humidity
76868;BME280;66168;45.478;11.060;2023-04-01T00:00:22;99569.54;;;10.95;68.99
76868;BME280;66168;45.478;11.060;2023-04-01T00:02:48;99573.75;;;10.92;68.69
76868;BME280;66168;45.478;11.060;2023-04-01T00:05:15;99573.46;;;10.91;68.61
76868;BME280;66168;45.478;11.060;2023-04-01T00:07:42;99573.42;;;10.91;68.75
76868;BME280;66168;45.478;11.060;2023-04-01T00:10:11;99577.80;;;10.90;68.56
76868;BME280;66168;45.478;11.060;2023-04-01T00:12:38;99584.19;;;10.90;68.57
76868;BME280;66168;45.478;11.060;2023-04-01T00:15:06;99583.77;;;10.92;68.44
76868;BME280;66168;45.478;11.060;2023-04-01T00:17:33;99585.00;;;10.93;68.44
76868;BME280;66168;45.478;11.060;2023-04-01T00:20:00;99589.10;;;10.94;68.63
76868;BME280;66168;45.478;11.060;2023-04-01T00:22:26;99589.75;;;10.95;68.49
76868;BME280;66168;45.478;11.060;2023-04-01T00:24:53;99588.30;;;10.95;68.39
76868;BME280;66168;45.478;11.060;2023-04-01T00:27:19;99587.50;;;10.96;68.35
76868;BME280;66168;45.478;11.060;2023-04-01T00:29:46;99588.29;;;10.97;68.17
76868;BME280;66168;45.478;11.060;2023-04-01T00:32:14;99589.55;;;10.95;67.92
76868;BME280;66168;45.478;11.060;2023-04-01T00:34:41;99584.80;;;10.91;67.73
76868;BME280;66168;45.478;11.060;2023-04-01T00:37:07;99582.51;;;10.87;67.77
76868;BME280;66168;45.478;11.060;2023-04-01T00:39:34;99583.52;;;10.84;67.70
76868;BME280;66168;45.478;11.060;2023-04-01T00:42:02;99580.95;;;10.80;67.49
76868;BME280;66168;45.478;11.060;2023-04-01T00:44:31;99583.84;;;10.76;67.28
76868;BME280;66168;45.478;11.060;2023-04-01T00:46:59;99588.58;;;10.71;67.40
76868;BME280;66168;45.478;11.060;2023-04-01T00:49:29;99590.19;;;10.60;67.84
76868;BME280;66168;45.478;11.060;2023-04-01T00:51:59;99589.02;;;10.46;68.38
76868;BME280;66168;45.478;11.060;2023-04-01T00:54:28;99586.88;;;10.38;68.46
76868;BME280;66168;45.478;11.060;2023-04-01T00:57:23;99588.67;;;10.36;68.33
76868;BME280;66168;45.478;11.060;2023-04-01T00:59:52;99591.69;;;10.37;68.33
76868;BME280;66168;45.478;11.060;2023-04-01T01:02:20;99602.98;;;10.37;68.25
76868;BME280;66168;45.478;11.060;2023-04-01T01:04:46;99607.34;;;10.34;68.19
76868;BME280;66168;45.478;11.060;2023-04-01T01:13:02;99597.69;;;10.35;68.09
76868;BME280;66168;45.478;11.060;2023-04-01T01:15:46;99597.38;;;10.36;68.30
76868;BME280;66168;45.478;11.060;2023-04-01T01:27:33;99596.77;;;10.37;68.05
76868;BME280;66168;45.478;11.060;2023-04-01T01:32:49;99607.48;;;10.40;67.67
76868;BME280;66168;45.478;11.060;2023-04-01T01:35:26;99597.95;;;10.40;67.64
76868;BME280;66168;45.478;11.060;2023-04-01T01:37:58;99598.36;;;10.39;67.50
76868;BME280;66168;45.478;11.060;2023-04-01T01:40:27;99594.56;;;10.39;67.46
76868;BME280;66168;45.478;11.060;2023-04-01T01:43:00;99591.56;;;10.37;67.24
76868;BME280;66168;45.478;11.060;2023-04-01T01:45:28;99588.59;;;10.38;67.21
76868;BME280;66168;45.478;11.060;2023-04-01T01:47:58;99590.67;;;10.40;67.40
76868;BME280;66168;45.478;11.060;2023-04-01T01:50:25;99586.64;;;10.42;67.41
76868;BME280;66168;45.478;11.060;2023-04-01T01:53:01;99587.83;;;10.43;67.28
76868;BME280;66168;45.478;11.060;2023-04-01T01:55:36;99584.51;;;10.41;67.27
76868;BME280;66168;45.478;11.060;2023-04-01T01:58:23;99581.39;;;10.39;67.10
76868;BME280;66168;45.478;11.060;2023-04-01T02:00:55;99575.14;;;10.40;67.12
76868;BME280;66168;45.478;11.060;2023-04-01T02:03:24;99576.64;;;10.38;66.83
76868;BME280;66168;45.478;11.060;2023-04-01T02:05:53;99573.48;;;10.33;66.82
76868;BME280;66168;45.478;11.060;2023-04-01T02:08:34;99567.46;;;10.31;66.83
76868;BME280;66168;45.478;11.060;2023-04-01T02:11:06;99564.88;;;10.27;66.78
76868;BME280;66168;45.478;11.060;2023-04-01T02:14:21;99565.68;;;10.24;66.83
76868;BME280;66168;45.478;11.060;2023-04-01T02:16:31;99572.27;;;10.21;66.81
76868;BME280;66168;45.478;11.060;2023-04-01T02:18:59;99583.21;;;10.20;66.74
76868;BME280;66168;45.478;11.060;2023-04-01T02:21:29;99585.84;;;10.21;66.74
76868;BME280;66168;45.478;11.060;2023-04-01T02:23:57;99586.61;;;10.21;66.80
76868;BME280;66168;45.478;11.060;2023-04-01T02:26:26;99585.17;;;10.21;66.92
76868;BME280;66168;45.478;11.060;2023-04-01T02:28:53;99580.56;;;10.23;66.94
76868;BME280;66168;45.478;11.060;2023-04-01T02:31:21;99579.79;;;10.24;66.87
76868;BME280;66168;45.478;11.060;2023-04-01T02:33:49;99578.98;;;10.27;66.72
76868;BME280;66168;45.478;11.060;2023-04-01T02:36:15;99581.73;;;10.27;66.64
76868;BME280;66168;45.478;11.060;2023-04-01T02:38:44;99583.83;;;10.23;66.52
76868;BME280;66168;45.478;11.060;2023-04-01T02:41:11;99581.58;;;10.19;66.59
76868;BME280;66168;45.478;11.060;2023-04-01T02:43:38;99579.73;;;10.17;66.74
76868;BME280;66168;45.478;11.060;2023-04-01T02:46:06;99579.08;;;10.14;66.80
76868;BME280;66168;45.478;11.060;2023-04-01T02:48:32;99577.86;;;10.09;66.73
76868;BME280;66168;45.478;11.060;2023-04-01T02:50:59;99577.08;;;10.06;66.64
76868;BME280;66168;45.478;11.060;2023-04-01T02:53:25;99574.35;;;10.01;66.72
76868;BME280;66168;45.478;11.060;2023-04-01T02:55:51;99579.14;;;9.99;66.85
76868;BME280;66168;45.478;11.060;2023-04-01T02:58:18;99580.77;;;9.96;66.90
76868;BME280;66168;45.478;11.060;2023-04-01T03:00:44;99579.56;;;9.95;66.96
76868;BME280;66168;45.478;11.060;2023-04-01T03:03:11;99583.70;;;9.94;67.24
76868;BME280;66168;45.478;11.060;2023-04-01T03:05:38;99587.95;;;9.94;67.20
76868;BME280;66168;45.478;11.060;2023-04-01T03:08:04;99593.54;;;9.95;67.12
76868;BME280;66168;45.478;11.060;2023-04-01T03:10:31;99592.19;;;9.96;67.05
76868;BME280;66168;45.478;11.060;2023-04-01T03:12:57;99585.86;;;9.97;67.00
76868;BME280;66168;45.478;11.060;2023-04-01T03:15:23;99586.04;;;9.98;66.96
76868;BME280;66168;45.478;11.060;2023-04-01T03:17:49;99585.55;;;9.99;66.84
76868;BME280;66168;45.478;11.060;2023-04-01T03:20:15;99585.91;;;9.99;66.74
76868;BME280;66168;45.478;11.060;2023-04-01T03:22:41;99584.80;;;9.97;66.77
76868;BME280;66168;45.478;11.060;2023-04-01T03:25:09;99581.06;;;9.93;66.80
76868;BME280;66168;45.478;11.060;2023-04-01T03:27:35;99580.18;;;9.89;66.96
76868;BME280;66168;45.478;11.060;2023-04-01T03:30:05;99580.98;;;9.85;66.87
76868;BME280;66168;45.478;11.060;2023-04-01T03:32:33;99579.98;;;9.83;66.99
76868;BME280;66168;45.478;11.060;2023-04-01T03:35:00;99584.05;;;9.85;67.02
76868;BME280;66168;45.478;11.060;2023-04-01T03:37:27;99587.13;;;9.87;67.27
76868;BME280;66168;45.478;11.060;2023-04-01T03:39:53;99592.48;;;9.89;67.20
76868;BME280;66168;45.478;11.060;2023-04-01T03:42:19;99595.64;;;9.92;67.06
76868;BME280;66168;45.478;11.060;2023-04-01T03:44:45;99595.28;;;9.92;67.04
76868;BME280;66168;45.478;11.060;2023-04-01T03:47:13;99592.20;;;9.90;66.82
76868;BME280;66168;45.478;11.060;2023-04-01T03:49:39;99593.25;;;9.88;66.89
76868;BME280;66168;45.478;11.060;2023-04-01T03:52:07;99599.66;;;9.85;66.81
76868;BME280;66168;45.478;11.060;2023-04-01T03:54:34;99600.48;;;9.80;66.68
76868;BME280;66168;45.478;11.060;2023-04-01T03:57:00;99593.79;;;9.73;66.67
76868;BME280;66168;45.478;11.060;2023-04-01T03:59:26;99598.02;;;9.69;66.95
76868;BME280;66168;45.478;11.060;2023-04-01T04:01:53;99604.09;;;9.67;66.90
76868;BME280;66168;45.478;11.060;2023-04-01T04:04:19;99603.42;;;9.64;66.89
76868;BME280;66168;45.478;11.060;2023-04-01T04:06:45;99598.14;;;9.62;66.85
76868;BME280;66168;45.478;11.060;2023-04-01T04:09:11;99599.86;;;9.63;66.99
76868;BME280;66168;45.478;11.060;2023-04-01T04:11:37;99601.43;;;9.61;67.23
76868;BME280;66168;45.478;11.060;2023-04-01T04:14:03;99604.09;;;9.62;67.45
76868;BME280;66168;45.478;11.060;2023-04-01T04:16:29;99609.60;;;9.61;67.36
76868;BME280;66168;45.478;11.060;2023-04-01T04:18:58;99615.31;;;9.54;67.34
76868;BME280;66168;45.478;11.060;2023-04-01T04:21:24;99615.77;;;9.45;67.57
76868;BME280;66168;45.478;11.060;2023-04-01T04:23:50;99623.12;;;9.44;67.73
76868;BME280;66168;45.478;11.060;2023-04-01T04:26:17;99626.17;;;9.42;68.00
76868;BME280;66168;45.478;11.060;2023-04-01T04:28:49;99626.89;;;9.38;67.75
76868;BME280;66168;45.478;11.060;2023-04-01T04:31:20;99628.09;;;9.37;67.69
76868;BME280;66168;45.478;11.060;2023-04-01T04:33:47;99627.30;;;9.34;68.01
76868;BME280;66168;45.478;11.060;2023-04-01T04:36:14;99629.90;;;9.34;68.08
76868;BME280;66168;45.478;11.060;2023-04-01T04:38:41;99633.95;;;9.35;67.84
76868;BME280;66168;45.478;11.060;2023-04-01T04:41:12;99641.33;;;9.37;67.89
76868;BME280;66168;45.478;11.060;2023-04-01T04:43:40;99645.11;;;9.38;68.00
76868;BME280;66168;45.478;11.060;2023-04-01T04:46:07;99644.27;;;9.35;68.09
76868;BME280;66168;45.478;11.060;2023-04-01T04:48:33;99642.42;;;9.33;68.12
76868;BME280;66168;45.478;11.060;2023-04-01T04:51:00;99639.86;;;9.34;68.28
76868;BME280;66168;45.478;11.060;2023-04-01T04:53:27;99643.96;;;9.36;68.20
76868;BME280;66168;45.478;11.060;2023-04-01T04:55:53;99642.16;;;9.35;68.10
76868;BME280;66168;45.478;11.060;2023-04-01T04:58:35;99646.17;;;9.32;68.07
76868;BME280;66168;45.478;11.060;2023-04-01T05:01:10;99651.05;;;9.29;67.95
76868;BME280;66168;45.478;11.060;2023-04-01T05:03:37;99648.88;;;9.24;68.11
76868;BME280;66168;45.478;11.060;2023-04-01T05:06:05;99642.96;;;9.23;67.90
76868;BME280;66168;45.478;11.060;2023-04-01T05:08:32;99644.42;;;9.22;67.72
76868;BME280;66168;45.478;11.060;2023-04-01T05:10:59;99647.14;;;9.21;67.87
76868;BME280;66168;45.478;11.060;2023-04-01T05:13:26;99652.10;;;9.19;68.02
76868;BME280;66168;45.478;11.060;2023-04-01T05:15:52;99656.35;;;9.18;67.92
76868;BME280;66168;45.478;11.060;2023-04-01T05:18:18;99653.22;;;9.16;67.78
76868;BME280;66168;45.478;11.060;2023-04-01T05:20:52;99658.84;;;9.15;67.64
76868;BME280;66168;45.478;11.060;2023-04-01T05:23:20;99656.02;;;9.13;67.68
76868;BME280;66168;45.478;11.060;2023-04-01T05:25:49;99658.88;;;9.15;67.41
76868;BME280;66168;45.478;11.060;2023-04-01T05:28:17;99664.48;;;9.11;67.20
76868;BME280;66168;45.478;11.060;2023-04-01T05:30:44;99664.71;;;9.10;67.47
76868;BME280;66168;45.478;11.060;2023-04-01T05:33:25;99662.13;;;9.11;67.33
76868;BME280;66168;45.478;11.060;2023-04-01T05:35:51;99666.40;;;9.12;67.19
76868;BME280;66168;45.478;11.060;2023-04-01T05:38:17;99664.65;;;9.12;67.34
76868;BME280;66168;45.478;11.060;2023-04-01T05:40:43;99661.39;;;9.11;67.05
76868;BME280;66168;45.478;11.060;2023-04-01T05:43:09;99658.13;;;9.12;67.17
76868;BME280;66168;45.478;11.060;2023-04-01T05:45:35;99654.60;;;9.20;67.20
76868;BME280;66168;45.478;11.060;2023-04-01T05:48:13;99653.20;;;9.31;67.38
76868;BME280;66168;45.478;11.060;2023-04-01T05:50:40;99649.38;;;9.45;67.42
76868;BME280;66168;45.478;11.060;2023-04-01T05:53:08;99646.09;;;9.60;67.40
76868;BME280;66168;45.478;11.060;2023-04-01T05:55:35;99648.96;;;9.74;67.16
76868;BME280;66168;45.478;11.060;2023-04-01T05:58:02;99647.98;;;9.90;66.78
76868;BME280;66168;45.478;11.060;2023-04-01T06:00:28;99652.98;;;10.08;66.58
76868;BME280;66168;45.478;11.060;2023-04-01T06:02:58;99655.65;;;10.26;66.29
76868;BME280;66168;45.478;11.060;2023-04-01T06:05:28;99660.08;;;10.42;66.12
76868;BME280;66168;45.478;11.060;2023-04-01T06:07:59;99661.99;;;10.55;65.82
76868;BME280;66168;45.478;11.060;2023-04-01T06:10:44;99670.33;;;10.72;65.64
76868;BME280;66168;45.478;11.060;2023-04-01T06:22:06;99677.82;;;11.14;65.09
76868;BME280;66168;45.478;11.060;2023-04-01T06:30:01;99677.98;;;11.69;63.50
76868;BME280;66168;45.478;11.060;2023-04-01T06:33:08;99677.47;;;11.86;62.91
76868;BME280;66168;45.478;11.060;2023-04-01T06:36:00;99678.88;;;11.97;62.69
76868;BME280;66168;45.478;11.060;2023-04-01T06:39:10;99680.44;;;12.14;63.04
76868;BME280;66168;45.478;11.060;2023-04-01T06:45:00;99679.31;;;12.56;62.33
76868;BME280;66168;45.478;11.060;2023-04-01T06:51:18;99689.20;;;13.05;61.41
76868;BME280;66168;45.478;11.060;2023-04-01T06:54:28;99694.65;;;13.23;60.64
76868;BME280;66168;45.478;11.060;2023-04-01T06:57:09;99705.67;;;13.37;60.40
76868;BME280;66168;45.478;11.060;2023-04-01T06:59:42;99704.17;;;13.48;60.46
76868;BME280;66168;45.478;11.060;2023-04-01T07:04:38;99697.36;;;13.84;59.68
76868;BME280;66168;45.478;11.060;2023-04-01T07:07:30;99703.23;;;13.95;58.18
76868;BME280;66168;45.478;11.060;2023-04-01T07:10:25;99702.26;;;13.98;58.75
76868;BME280;66168;45.478;11.060;2023-04-01T07:13:18;99706.20;;;14.01;58.98
76868;BME280;66168;45.478;11.060;2023-04-01T07:18:34;99709.79;;;14.05;58.89
76868;BME280;66168;45.478;11.060;2023-04-01T07:21:04;99709.43;;;14.07;59.06
76868;BME280;66168;45.478;11.060;2023-04-01T07:23:44;99715.73;;;14.10;58.97
76868;BME280;66168;45.478;11.060;2023-04-01T07:26:40;99719.39;;;14.15;58.88
76868;BME280;66168;45.478;11.060;2023-04-01T07:29:13;99717.08;;;14.17;58.50
76868;BME280;66168;45.478;11.060;2023-04-01T07:37:47;99718.92;;;14.24;60.66
76868;BME280;66168;45.478;11.060;2023-04-01T07:40:31;99722.82;;;14.40;62.20
76868;BME280;66168;45.478;11.060;2023-04-01T07:47:03;99722.90;;;14.58;63.24
76868;BME280;66168;45.478;11.060;2023-04-01T07:49:46;99724.60;;;14.74;62.92
76868;BME280;66168;45.478;11.060;2023-04-01T07:52:22;99726.14;;;14.99;62.43
76868;BME280;66168;45.478;11.060;2023-04-01T07:55:03;99729.20;;;15.15;62.21
76868;BME280;66168;45.478;11.060;2023-04-01T07:57:51;99728.76;;;15.14;62.16
76868;BME280;66168;45.478;11.060;2023-04-01T08:00:31;99726.98;;;15.28;61.85
76868;BME280;66168;45.478;11.060;2023-04-01T08:06:11;99732.43;;;15.68;60.14
76868;BME280;66168;45.478;11.060;2023-04-01T08:12:51;99724.55;;;15.95;60.10
76868;BME280;66168;45.478;11.060;2023-04-01T08:15:15;99726.52;;;16.11;59.54
76868;BME280;66168;45.478;11.060;2023-04-01T08:18:35;99723.89;;;16.25;59.21
76868;BME280;66168;45.478;11.060;2023-04-01T08:21:07;99724.49;;;16.26;59.36
76868;BME280;66168;45.478;11.060;2023-04-01T08:23:40;99728.89;;;16.28;59.37
76868;BME280;66168;45.478;11.060;2023-04-01T08:28:55;99729.48;;;16.94;59.48
76868;BME280;66168;45.478;11.060;2023-04-01T08:31:35;99731.20;;;17.27;58.00
76868;BME280;66168;45.478;11.060;2023-04-01T08:34:08;99723.66;;;17.30;58.05
76868;BME280;66168;45.478;11.060;2023-04-01T08:36:42;99722.55;;;17.44;58.16
76868;BME280;66168;45.478;11.060;2023-04-01T08:39:17;99717.48;;;17.58;57.14
76868;BME280;66168;45.478;11.060;2023-04-01T08:48:01;99716.50;;;18.00;56.57
76868;BME280;66168;45.478;11.060;2023-04-01T09:04:25;99729.88;;;17.76;55.58
76868;BME280;66168;45.478;11.060;2023-04-01T09:20:50;99731.46;;;18.67;53.68
76868;BME280;66168;45.478;11.060;2023-04-01T09:23:33;99728.15;;;18.70;53.58
76868;BME280;66168;45.478;11.060;2023-04-01T09:34:52;99735.38;;;19.16;51.66
76868;BME280;66168;45.478;11.060;2023-04-01T09:37:35;99729.52;;;19.13;51.37
76868;BME280;66168;45.478;11.060;2023-04-01T09:40:17;99726.19;;;19.15;50.88
76868;BME280;66168;45.478;11.060;2023-04-01T09:43:13;99727.38;;;19.25;51.40
76868;BME280;66168;45.478;11.060;2023-04-01T09:49:11;99725.70;;;19.39;49.77
76868;BME280;66168;45.478;11.060;2023-04-01T09:57:39;99728.10;;;19.85;48.34
76868;BME280;66168;45.478;11.060;2023-04-01T10:25:57;99705.95;;;21.96;44.40
76868;BME280;66168;45.478;11.060;2023-04-01T10:31:45;99698.20;;;21.64;42.67
76868;BME280;66168;45.478;11.060;2023-04-01T10:37:10;99695.16;;;21.44;42.50
76868;BME280;66168;45.478;11.060;2023-04-01T10:43:16;99686.60;;;22.07;42.06
76868;BME280;66168;45.478;11.060;2023-04-01T10:49:24;99684.21;;;22.46;41.21
76868;BME280;66168;45.478;11.060;2023-04-01T10:52:12;99685.96;;;22.41;41.08
76868;BME280;66168;45.478;11.060;2023-04-01T11:19:19;99665.19;;;22.63;39.16
76868;BME280;66168;45.478;11.060;2023-04-01T11:31:10;99667.53;;;23.29;38.80
76868;BME280;66168;45.478;11.060;2023-04-01T11:36:47;99661.41;;;23.01;36.80
76868;BME280;66168;45.478;11.060;2023-04-01T11:39:30;99664.36;;;22.89;37.30
76868;BME280;66168;45.478;11.060;2023-04-01T11:45:43;99661.13;;;23.43;37.07
76868;BME280;66168;45.478;11.060;2023-04-01T11:48:32;99653.86;;;23.57;37.32
76868;BME280;66168;45.478;11.060;2023-04-01T12:16:32;99660.63;;;23.99;34.60
76868;BME280;66168;45.478;11.060;2023-04-01T12:19:16;99656.10;;;23.95;34.82
76868;BME280;66168;45.478;11.060;2023-04-01T12:24:45;99655.27;;;23.82;34.74
76868;BME280;66168;45.478;11.060;2023-04-01T12:27:34;99650.30;;;24.05;34.86
76868;BME280;66168;45.478;11.060;2023-04-01T12:36:19;99645.33;;;24.39;34.00
76868;BME280;66168;45.478;11.060;2023-04-01T12:50:05;99632.50;;;24.95;32.46
76868;BME280;66168;45.478;11.060;2023-04-01T13:17:17;99619.69;;;27.15;25.26
76868;BME280;66168;45.478;11.060;2023-04-01T13:19:52;99615.46;;;27.26;24.81
76868;BME280;66168;45.478;11.060;2023-04-01T13:25:50;99609.05;;;27.18;25.54
76868;BME280;66168;45.478;11.060;2023-04-01T13:28:21;99599.37;;;26.89;24.37
76868;BME280;66168;45.478;11.060;2023-04-01T13:30:59;99595.57;;;26.58;24.83
76868;BME280;66168;45.478;11.060;2023-04-01T13:33:45;99596.27;;;26.22;25.10
76868;BME280;66168;45.478;11.060;2023-04-01T13:36:33;99596.39;;;25.74;25.14
76868;BME280;66168;45.478;11.060;2023-04-01T13:45:09;99577.06;;;24.81;25.74
76868;BME280;66168;45.478;11.060;2023-04-01T13:50:44;99561.74;;;24.84;25.88
76868;BME280;66168;45.478;11.060;2023-04-01T13:54:08;99553.44;;;25.00;26.00
76868;BME280;66168;45.478;11.060;2023-04-01T14:01:51;99546.75;;;25.10;25.90
76868;BME280;66168;45.478;11.060;2023-04-01T14:07:40;99540.25;;;24.43;25.34
76868;BME280;66168;45.478;11.060;2023-04-01T14:10:34;99537.33;;;23.90;25.64
76868;BME280;66168;45.478;11.060;2023-04-01T14:18:57;99539.96;;;23.27;27.04
76868;BME280;66168;45.478;11.060;2023-04-01T14:21:33;99538.82;;;23.09;26.97
76868;BME280;66168;45.478;11.060;2023-04-01T14:32:51;99532.69;;;22.18;28.34
76868;BME280;66168;45.478;11.060;2023-04-01T14:38:33;99522.84;;;21.95;28.46
76868;BME280;66168;45.478;11.060;2023-04-01T14:41:19;99516.95;;;21.85;29.12
76868;BME280;66168;45.478;11.060;2023-04-01T14:44:11;99513.52;;;21.74;29.71
76868;BME280;66168;45.478;11.060;2023-04-01T14:52:33;99496.83;;;21.43;30.13
76868;BME280;66168;45.478;11.060;2023-04-01T14:54:51;99496.05;;;21.28;30.34
76868;BME280;66168;45.478;11.060;2023-04-01T14:57:29;99498.30;;;21.16;30.42
76868;BME280;66168;45.478;11.060;2023-04-01T15:00:17;99499.46;;;21.05;30.79
76868;BME280;66168;45.478;11.060;2023-04-01T15:05:27;99504.08;;;20.88;31.67
76868;BME280;66168;45.478;11.060;2023-04-01T15:29:39;99489.36;;;20.94;30.71
76868;BME280;66168;45.478;11.060;2023-04-01T15:32:45;99488.65;;;20.94;30.66
76868;BME280;66168;45.478;11.060;2023-04-01T15:35:41;99483.09;;;20.95;30.70
76868;BME280;66168;45.478;11.060;2023-04-01T15:38:27;99482.98;;;20.94;30.82
76868;BME280;66168;45.478;11.060;2023-04-01T15:43:44;99480.55;;;20.91;30.91
76868;BME280;66168;45.478;11.060;2023-04-01T16:02:17;99486.30;;;20.86;29.99
76868;BME280;66168;45.478;11.060;2023-04-01T16:04:56;99489.31;;;20.85;29.65
76868;BME280;66168;45.478;11.060;2023-04-01T16:12:54;99490.17;;;20.78;30.25
76868;BME280;66168;45.478;11.060;2023-04-01T16:15:56;99490.55;;;20.72;30.29
76868;BME280;66168;45.478;11.060;2023-04-01T16:21:24;99479.41;;;20.57;30.49
76868;BME280;66168;45.478;11.060;2023-04-01T16:23:57;99475.35;;;20.52;30.70
76868;BME280;66168;45.478;11.060;2023-04-01T16:26:41;99476.27;;;20.45;30.95
76868;BME280;66168;45.478;11.060;2023-04-01T16:29:10;99470.21;;;20.37;30.79
76868;BME280;66168;45.478;11.060;2023-04-01T16:34:24;99473.52;;;20.25;31.14
76868;BME280;66168;45.478;11.060;2023-04-01T16:37:17;99475.17;;;20.23;31.09
76868;BME280;66168;45.478;11.060;2023-04-01T16:39:52;99463.34;;;20.15;31.21
76868;BME280;66168;45.478;11.060;2023-04-01T16:45:35;99457.32;;;20.04;31.48
76868;BME280;66168;45.478;11.060;2023-04-01T16:48:12;99461.77;;;19.97;32.07
76868;BME280;66168;45.478;11.060;2023-04-01T16:50:59;99465.91;;;19.90;32.20
76868;BME280;66168;45.478;11.060;2023-04-01T16:53:48;99469.48;;;19.80;32.39
76868;BME280;66168;45.478;11.060;2023-04-01T16:56:23;99466.59;;;19.69;32.24
76868;BME280;66168;45.478;11.060;2023-04-01T16:59:07;99470.76;;;19.61;32.32
76868;BME280;66168;45.478;11.060;2023-04-01T17:07:31;99468.54;;;19.34;32.65
76868;BME280;66168;45.478;11.060;2023-04-01T17:12:39;99468.71;;;19.17;33.77
76868;BME280;66168;45.478;11.060;2023-04-01T17:20:43;99475.59;;;18.89;34.60
76868;BME280;66168;45.478;11.060;2023-04-01T17:28:56;99475.82;;;18.59;34.97
76868;BME280;66168;45.478;11.060;2023-04-01T17:37:01;99491.22;;;18.24;35.32
76868;BME280;66168;45.478;11.060;2023-04-01T17:45:42;99494.30;;;17.78;35.70
76868;BME280;66168;45.478;11.060;2023-04-01T17:51:25;99500.75;;;17.60;36.30
76868;BME280;66168;45.478;11.060;2023-04-01T18:05:32;99518.39;;;17.14;36.87
76868;BME280;66168;45.478;11.060;2023-04-01T18:10:41;99527.95;;;16.94;37.24
76868;BME280;66168;45.478;11.060;2023-04-01T18:26:35;99532.85;;;16.43;38.37
76868;BME280;66168;45.478;11.060;2023-04-01T18:29:34;99539.93;;;16.35;38.51
76868;BME280;66168;45.478;11.060;2023-04-01T18:34:56;99545.34;;;16.31;38.99
76868;BME280;66168;45.478;11.060;2023-04-01T18:37:28;99552.02;;;16.33;39.13
76868;BME280;66168;45.478;11.060;2023-04-01T18:40:04;99557.30;;;16.31;38.86
76868;BME280;66168;45.478;11.060;2023-04-01T18:42:52;99560.06;;;16.27;38.81
76868;BME280;66168;45.478;11.060;2023-04-01T18:45:27;99562.27;;;16.28;38.96
76868;BME280;66168;45.478;11.060;2023-04-01T18:48:03;99565.09;;;16.31;39.15
76868;BME280;66168;45.478;11.060;2023-04-01T18:50:43;99567.56;;;16.34;39.07
76868;BME280;66168;45.478;11.060;2023-04-01T18:53:41;99566.57;;;16.36;39.06
76868;BME280;66168;45.478;11.060;2023-04-01T18:56:26;99568.60;;;16.36;38.97
76868;BME280;66168;45.478;11.060;2023-04-01T19:04:53;99573.94;;;16.37;39.19
76868;BME280;66168;45.478;11.060;2023-04-01T19:10:46;99584.48;;;16.41;39.36
76868;BME280;66168;45.478;11.060;2023-04-01T19:22:10;99593.24;;;16.45;38.90
76868;BME280;66168;45.478;11.060;2023-04-01T19:27:18;99592.95;;;16.46;38.62
76868;BME280;66168;45.478;11.060;2023-04-01T19:30:17;99595.20;;;16.48;38.61
76868;BME280;66168;45.478;11.060;2023-04-01T19:35:52;99598.89;;;16.51;38.65
76868;BME280;66168;45.478;11.060;2023-04-01T19:38:30;99605.04;;;16.52;38.73
76868;BME280;66168;45.478;11.060;2023-04-01T19:41:14;99609.73;;;16.50;38.88
76868;BME280;66168;45.478;11.060;2023-04-01T19:46:26;99619.67;;;16.43;39.26
76868;BME280;66168;45.478;11.060;2023-04-01T19:54:58;99614.38;;;16.30;39.34
76868;BME280;66168;45.478;11.060;2023-04-01T20:00:25;99623.85;;;16.21;39.32
76868;BME280;66168;45.478;11.060;2023-04-01T20:03:01;99631.63;;;16.11;39.47
76868;BME280;66168;45.478;11.060;2023-04-01T20:05:44;99633.48;;;15.97;40.18
76868;BME280;66168;45.478;11.060;2023-04-01T20:08:36;99636.46;;;15.78;40.66
76868;BME280;66168;45.478;11.060;2023-04-01T20:16:50;99647.89;;;15.45;41.37
76868;BME280;66168;45.478;11.060;2023-04-01T20:19:41;99648.23;;;15.41;41.60
76868;BME280;66168;45.478;11.060;2023-04-01T20:25:25;99647.84;;;15.34;41.77
76868;BME280;66168;45.478;11.060;2023-04-01T20:28:00;99652.02;;;15.29;42.01
76868;BME280;66168;45.478;11.060;2023-04-01T20:47:29;99663.81;;;15.15;44.42
76868;BME280;66168;45.478;11.060;2023-04-01T20:50:29;99661.94;;;15.15;44.93
76868;BME280;66168;45.478;11.060;2023-04-01T20:53:12;99661.23;;;15.12;44.90
76868;BME280;66168;45.478;11.060;2023-04-01T20:58:38;99665.31;;;15.09;45.09
76868;BME280;66168;45.478;11.060;2023-04-01T21:12:29;99680.77;;;14.90;47.24
76868;BME280;66168;45.478;11.060;2023-04-01T21:31:51;99698.32;;;15.11;51.14
76868;BME280;66168;45.478;11.060;2023-04-01T21:39:53;99702.05;;;15.27;52.54
76868;BME280;66168;45.478;11.060;2023-04-01T21:45:43;99701.23;;;15.35;53.81
76868;BME280;66168;45.478;11.060;2023-04-01T22:00:13;99704.11;;;15.52;53.76
76868;BME280;66168;45.478;11.060;2023-04-01T22:08:36;99701.41;;;15.56;54.32
76868;BME280;66168;45.478;11.060;2023-04-01T22:16:50;99704.36;;;15.60;54.36
76868;BME280;66168;45.478;11.060;2023-04-01T22:19:26;99705.57;;;15.62;54.46
76868;BME280;66168;45.478;11.060;2023-04-01T22:21:58;99707.52;;;15.62;54.54
76868;BME280;66168;45.478;11.060;2023-04-01T22:27:22;99704.62;;;15.62;55.23
76868;BME280;66168;45.478;11.060;2023-04-01T22:30:09;99703.50;;;15.62;55.38
76868;BME280;66168;45.478;11.060;2023-04-01T22:32:43;99701.38;;;15.63;55.61
76868;BME280;66168;45.478;11.060;2023-04-01T22:43:39;99699.02;;;15.68;55.30
76868;BME280;66168;45.478;11.060;2023-04-01T22:46:09;99690.73;;;15.71;54.84
76868;BME280;66168;45.478;11.060;2023-04-01T22:48:43;99696.65;;;15.69;54.59
76868;BME280;66168;45.478;11.060;2023-04-01T22:51:21;99697.44;;;15.67;54.41
76868;BME280;66168;45.478;11.060;2023-04-01T22:56:34;99697.08;;;15.69;53.68
76868;BME280;66168;45.478;11.060;2023-04-01T22:59:15;99698.05;;;15.70;53.63